Mont Saint Michel — FNMT — position and weather

sailwx.info

Track history (hours):
 
Tides and Currents Weather Stations Pressure Air Temp Water Temp Dewpoint Dewpoint Depression Visibility Wind Speed Wind Dir Waves Ship Positions

Mont Saint Michel

Last reported at 2015-Feb-26 23:33 UTC. Time now 2015-Feb-27 00:34 UTC.
Position N 50°43' W 001°01'.

Length 173 m; beam 29 m.

Type: Ship. MMSI: 227023100.

Date/timePositionNaut miles runAvg speedWind from/ knotsBaromVisibWave heightAir tempDewpointWater temp
2015-Feb-26 23:33N 50°43' W 001°01'6 6.5
2015-Feb-26 22:33N 50°49' W 001°06'0 0.0
2015-Feb-26 21:34N 50°49' W 001°06'5 4.7
2015-Feb-26 20:34N 50°44' W 001°04'1818.2
2015-Feb-26 19:33N 50°29' W 000°49'3919.3
2015-Feb-26 17:33N 49°52' W 000°28'2020.0
2015-Feb-26 16:33N 49°33' W 000°21'1616.0
2015-Feb-26 15:34N 49°17' W 000°15'0 0.0
2015-Feb-26 14:34N 49°17' W 000°15'4 3.7
2015-Feb-26 13:34N 49°21' W 000°14'2121.3
2015-Feb-26 12:34N 49°41' W 000°27'4521.1
2015-Feb-26 10:25N 50°23' W 000°51'1720.2
2015-Feb-26 09:34N 50°40' W 000°58'1010.2
2015-Feb-26 08:33N 50°49' W 001°06'0 0.1
2015-Feb-26 07:33N 50°49' W 001°06'0 0.0
2015-Feb-26 06:33N 50°49' W 001°06'1312.8
2015-Feb-26 05:33N 50°37' W 000°57'1414.1
2015-Feb-26 04:33N 50°24' W 000°48'3711.2
2015-Feb-26 01:16N 49°49' W 000°31'811.0
2015-Feb-26 00:33N 49°41' W 000°28'1111.0
2015-Feb-25 23:33N 49°32' W 000°20'1312.7
2015-Feb-25 22:33N 49°20' W 000°15'2 2.3
2015-Feb-25 21:34N 49°17' W 000°15'0 0.0
2015-Feb-25 20:34N 49°17' W 000°15'1413.7
2015-Feb-25 19:33N 49°31' W 000°20'4820.2
2015-Feb-25 17:12N 50°16' W 000°44'1320.5
2015-Feb-25 16:33N 50°28' W 000°53'1918.7
2015-Feb-25 15:33N 50°45' W 001°05'4 4.1
2015-Feb-25 14:33N 50°49' W 001°06'0 0.0
2015-Feb-25 13:33N 50°49' W 001°06'3 3.4
2015-Feb-25 12:33N 50°45' W 001°05'1717.3
2015-Feb-25 11:33N 50°29' W 000°58'4120.4
2015-Feb-25 09:32N 49°49' W 000°40'2121.4
2015-Feb-25 08:33N 49°31' W 000°24'1514.7
2015-Feb-25 07:33N 49°17' W 000°15'0 0.0
2015-Feb-25 06:34N 49°17' W 000°15'0 0.1
2015-Feb-25 05:33N 49°17' W 000°15'1616.3
2015-Feb-25 04:33N 49°33' W 000°19'4715.3
2015-Feb-25 01:30N 50°17' W 000°45'1415.1
2015-Feb-25 00:33N 50°30' W 000°53'1414.1
2015-Feb-24 23:34N 50°43' W 001°01'6 6.1
2015-Feb-24 22:33N 50°49' W 001°06'0 0.0
2015-Feb-24 21:33N 50°49' W 001°06'5 5.0
2015-Feb-24 20:33N 50°44' W 001°03'1817.7
2015-Feb-24 19:33N 50°27' W 000°59'3718.6
2015-Feb-24 17:33N 49°51' W 000°41'1919.0
2015-Feb-24 16:34N 49°34' W 000°27'1818.2
2015-Feb-24 15:33N 49°18' W 000°15'1 0.8
2015-Feb-24 14:33N 49°17' W 000°15'0 0.0
2015-Feb-24 13:33N 49°17' W 000°15'1716.8
2015-Feb-24 12:33N 49°33' W 000°22'1919.2
2015-Feb-24 11:34N 49°52' W 000°32'4020.0
2015-Feb-24 09:33N 50°29' W 000°53'1918.6
2015-Feb-24 08:34N 50°46' W 001°05'3 2.7
2015-Feb-24 07:34N 50°49' W 001°06'0 0.1
2015-Feb-24 06:33N 50°49' W 001°06'1212.3
2015-Feb-24 05:34N 50°37' W 000°58'1717.3
2015-Feb-24 04:33N 50°21' W 000°47'2711.4
2015-Feb-24 02:09N 49°55' W 000°35'6 9.7
2015-Feb-24 01:33N 49°49' W 000°34'10 9.7
2015-Feb-24 00:33N 49°41' W 000°27'10 9.7
2015-Feb-23 23:33N 49°32' W 000°21'1110.7
2015-Feb-23 22:33N 49°22' W 000°15'5 4.5
2015-Feb-23 21:33N 49°17' W 000°15'0 0.0
2015-Feb-23 20:33N 49°17' W 000°15'1211.7
2015-Feb-23 19:33N 49°29' W 000°18'1918.6
2015-Feb-23 18:33N 49°46' W 000°28'3517.7
2015-Feb-23 16:33N 50°20' W 000°45'1717.3
2015-Feb-23 15:33N 50°35' W 000°57'1414.5
2015-Feb-23 14:33N 50°49' W 001°06'0 0.0
2015-Feb-23 13:33N 50°49' W 001°06'4 3.8
2015-Feb-23 12:33N 50°45' W 001°05'2019.9
2015-Feb-23 11:33N 50°26' W 000°54'3718.3
2015-Feb-23 09:33N 49°52' W 000°34'1918.6
2015-Feb-23 08:33N 49°34' W 000°24'1817.5
2015-Feb-23 07:33N 49°18' W 000°15'1 0.7
2015-Feb-23 06:34N 49°17' W 000°15'0 0.1
2015-Feb-23 05:34N 49°17' W 000°15'1212.4
2015-Feb-23 04:33N 49°29' W 000°20'1413.6
2015-Feb-23 03:33N 49°43' W 000°24'1515.0
2015-Feb-23 02:32N 49°56' W 000°34'1915.8
2015-Feb-23 01:22N 50°14' W 000°43'1215.2
2015-Feb-23 00:33N 50°25' W 000°50'1514.8
2015-Feb-22 23:34N 50°39' W 000°58'1110.6
2015-Feb-22 22:33N 50°49' W 001°06'0 0.0
2015-Feb-22 21:33N 50°49' W 001°06'5 4.9
2015-Feb-22 20:34N 50°44' W 001°04'1716.6
2015-Feb-22 19:33N 50°29' W 000°52'3618.1
2015-Feb-22 17:33N 49°54' W 000°36'2020.2
2015-Feb-22 16:33N 49°36' W 000°24'1918.9
2015-Feb-22 15:33N 49°18' W 000°15'0 0.3
2015-Feb-22 14:34N 49°17' W 000°15'2 2.0
2015-Feb-22 13:33N 49°19' W 000°15'2120.6
2015-Feb-22 12:33N 49°39' W 000°24'4120.5
2015-Feb-22 10:33N 50°18' W 000°46'1919.5
2015-Feb-22 09:33N 50°36' W 000°56'1414.4
2015-Feb-22 08:33N 50°49' W 001°07'1 0.6
2015-Feb-22 07:33N 50°49' W 001°06'0 0.3
2015-Feb-22 06:33N 50°49' W 001°06'1312.6
2015-Feb-22 05:33N 50°37' W 000°59'1211.5
2015-Feb-22 04:33N 50°26' W 000°57'3511.6
2015-Feb-22 01:33N 49°53' W 000°36'1111.1
2015-Feb-22 00:33N 49°43' W 000°29'1110.9
2015-Feb-21 23:33N 49°33' W 000°22'1110.7
2015-Feb-21 22:33N 49°23' W 000°16'6 6.2
2015-Feb-21 21:34N 49°17' W 000°15'0 0.0
2015-Feb-21 20:33N 49°17' W 000°15'1111.1
2015-Feb-21 19:33N 49°28' W 000°19'1919.0
2015-Feb-21 18:33N 49°46' W 000°27'3818.8
2015-Feb-21 16:32N 50°22' W 000°50'1919.2
2015-Feb-21 15:33N 50°39' W 000°59'1010.2
2015-Feb-21 14:33N 50°49' W 001°06'0 0.0
2015-Feb-21 13:33N 50°49' W 001°06'4 4.4
2015-Feb-21 12:34N 50°44' W 001°04'1818.3
2015-Feb-21 11:33N 50°28' W 000°53'3919.6
2015-Feb-21 09:33N 49°51' W 000°31'1919.4
2015-Feb-21 08:33N 49°33' W 000°21'1616.0
2015-Feb-21 07:33N 49°17' W 000°15'0 0.0
2015-Feb-21 06:33N 49°17' W 000°15'0 0.0
2015-Feb-21 05:33N 49°17' W 000°15'8 8.4
2015-Feb-21 04:33N 49°26' W 000°15'1211.8
2015-Feb-21 03:33N 49°37' W 000°20'1010.3
2015-Feb-21 02:33N 49°46' W 000°28'3714.9
2015-Feb-21 00:04N 50°21' W 000°49'816.6
2015-Feb-20 23:33N 50°29' W 000°54'1615.5
2015-Feb-20 22:33N 50°43' W 001°02'6 6.0
2015-Feb-20 21:33N 50°49' W 001°06'0 0.0
2015-Feb-20 20:33N 50°49' W 001°06'0 0.0
2015-Feb-20 19:33N 50°49' W 001°06'5 5.2
2015-Feb-20 18:33N 50°44' W 001°03'1716.7
2015-Feb-20 17:33N 50°28' W 000°54'4916.4
2015-Feb-20 14:33N 49°42' W 000°27'1818.5
2015-Feb-20 13:33N 49°25' W 000°17'7 7.5
2015-Feb-20 12:33N 49°17' W 000°15'0 0.0
2015-Feb-20 11:33N 49°17' W 000°15'0 0.0
2015-Feb-20 10:33N 49°17' W 000°15'0 0.0
2015-Feb-20 09:33N 49°17' W 000°15'0 0.0
2015-Feb-20 08:33N 49°17' W 000°15'0 0.0
2015-Feb-20 07:34N 49°17' W 000°15'0 0.1
2015-Feb-20 06:33N 49°17' W 000°15'1312.8
2015-Feb-20 05:33N 49°30' W 000°19'1010.3
2015-Feb-20 04:33N 49°39' W 000°25'1413.3
2015-Feb-20 03:31N 49°52' W 000°32'2814.1
2015-Feb-20 01:33N 50°18' W 000°47'1515.1
2015-Feb-20 00:33N 50°32' W 000°56'1514.7
2015-Feb-19 23:33N 50°46' W 001°05'3 3.2
2015-Feb-19 22:34N 50°49' W 001°06'0 0.0
2015-Feb-19 21:33N 50°49' W 001°06'9 8.8
2015-Feb-19 20:33N 50°41' W 001°01'1817.7
2015-Feb-19 19:32N 50°24' W 000°50'2718.1
2015-Feb-19 18:04N 49°59' W 000°37'1018.9
2015-Feb-19 17:33N 49°49' W 000°32'2019.5
2015-Feb-19 16:33N 49°31' W 000°21'1514.5
2015-Feb-19 15:33N 49°17' W 000°15'0 0.0
2015-Feb-19 14:33N 49°17' W 000°15'2 2.4
2015-Feb-19 13:34N 49°20' W 000°14'1817.5
2015-Feb-19 12:33N 49°37' W 000°19'5518.2
2015-Feb-19 09:34N 50°28' W 000°50'1818.1
2015-Feb-19 08:34N 50°44' W 001°04'5 5.0
2015-Feb-19 07:33N 50°49' W 001°06'0 0.0
2015-Feb-19 06:34N 50°49' W 001°06'9 8.9
2015-Feb-19 05:33N 50°41' W 000°58'1514.5
2015-Feb-19 04:34N 50°27' W 000°52'2511.6
2015-Feb-19 02:26N 50°04' W 000°40'1112.4
2015-Feb-19 01:34N 49°54' W 000°32'1312.8
2015-Feb-19 00:33N 49°43' W 000°23'1212.5
2015-Feb-18 23:33N 49°30' W 000°20'1211.7
2015-Feb-18 22:34N 49°19' W 000°15'2 1.9
2015-Feb-18 21:34N 49°17' W 000°15'1 1.5
2015-Feb-18 20:33N 49°19' W 000°15'2019.5
2015-Feb-18 19:33N 49°37' W 000°25'5819.5
2015-Feb-18 16:33N 50°33' W 000°53'1717.3
2015-Feb-18 15:33N 50°48' W 001°07'1 1.3
2015-Feb-18 14:33N 50°49' W 001°06'0 0.0
2015-Feb-18 13:33N 50°49' W 001°06'1 0.5
2015-Feb-18 12:34N 50°49' W 001°07'1716.9
2015-Feb-18 11:33N 50°34' W 000°54'2519.5
2015-Feb-18 10:17N 50°11' W 000°37'1419.1
2015-Feb-18 09:33N 49°58' W 000°31'1918.9
2015-Feb-18 08:33N 49°40' W 000°22'1919.1
2015-Feb-18 07:33N 49°21' W 000°15'4 4.1
2015-Feb-18 06:33N 49°17' W 000°15'0 0.0
2015-Feb-18 05:33N 49°17' W 000°15'1110.7
2015-Feb-18 04:33N 49°28' W 000°16'1717.3
2015-Feb-18 03:33N 49°44' W 000°27'3417.1
2015-Feb-18 01:33N 50°17' W 000°43'1717.3
2015-Feb-18 00:33N 50°32' W 000°55'1616.2
2015-Feb-17 23:33N 50°47' W 001°06'2 2.0
2015-Feb-17 22:33N 50°49' W 001°06'0 0.0
2015-Feb-17 21:33N 50°49' W 001°06'1212.0
2015-Feb-17 20:34N 50°37' W 000°59'2020.4
2015-Feb-17 19:33N 50°18' W 000°47'4019.9
2015-Feb-17 17:33N 49°41' W 000°28'2020.0
2015-Feb-17 16:34N 49°22' W 000°15'5 5.1
2015-Feb-17 15:33N 49°17' W 000°15'0 0.0
2015-Feb-17 14:33N 49°17' W 000°15'2 2.1
2015-Feb-17 13:33N 49°19' W 000°14'1919.4
2015-Feb-17 12:33N 49°38' W 000°22'4219.3
2015-Feb-17 10:24N 50°17' W 000°46'1720.0
2015-Feb-17 09:33N 50°33' W 000°56'1717.0
2015-Feb-17 08:33N 50°48' W 001°07'1 0.9
2015-Feb-17 07:33N 50°49' W 001°06'0 0.1
2015-Feb-17 06:34N 50°49' W 001°06'1313.0
2015-Feb-17 05:34N 50°37' W 000°58'4711.7
2015-Feb-17 01:33N 49°52' W 000°35'1111.2
2015-Feb-17 00:33N 49°42' W 000°29'  
Track history (hours):
 
Tides and Currents Weather Stations Pressure Air Temp Water Temp Dewpoint Dewpoint Depression Visibility Wind Speed Wind Dir Waves Ship Positions

Mont Saint Michel

Last reported at 2015-Feb-26 23:33 UTC. Time now 2015-Feb-27 00:34 UTC.
Position N 50°43' W 001°01'.

Length 173 m; beam 29 m.

Type: Ship. MMSI: 227023100.

Date/timePositionNaut miles runAvg speedWind from/ knotsBaromVisibWave heightAir tempDewpointWater temp
2015-Feb-26 23:33N 50°43' W 001°01'6 6.5
2015-Feb-26 22:33N 50°49' W 001°06'0 0.0
2015-Feb-26 21:34N 50°49' W 001°06'5 4.7
2015-Feb-26 20:34N 50°44' W 001°04'1818.2
2015-Feb-26 19:33N 50°29' W 000°49'3919.3
2015-Feb-26 17:33N 49°52' W 000°28'2020.0
2015-Feb-26 16:33N 49°33' W 000°21'1616.0
2015-Feb-26 15:34N 49°17' W 000°15'0 0.0
2015-Feb-26 14:34N 49°17' W 000°15'4 3.7
2015-Feb-26 13:34N 49°21' W 000°14'2121.3
2015-Feb-26 12:34N 49°41' W 000°27'4521.1
2015-Feb-26 10:25N 50°23' W 000°51'1720.2
2015-Feb-26 09:34N 50°40' W 000°58'1010.2
2015-Feb-26 08:33N 50°49' W 001°06'0 0.1
2015-Feb-26 07:33N 50°49' W 001°06'0 0.0
2015-Feb-26 06:33N 50°49' W 001°06'1312.8
2015-Feb-26 05:33N 50°37' W 000°57'1414.1
2015-Feb-26 04:33N 50°24' W 000°48'3711.2
2015-Feb-26 01:16N 49°49' W 000°31'811.0
2015-Feb-26 00:33N 49°41' W 000°28'1111.0
2015-Feb-25 23:33N 49°32' W 000°20'1312.7
2015-Feb-25 22:33N 49°20' W 000°15'2 2.3
2015-Feb-25 21:34N 49°17' W 000°15'0 0.0
2015-Feb-25 20:34N 49°17' W 000°15'1413.7
2015-Feb-25 19:33N 49°31' W 000°20'4820.2
2015-Feb-25 17:12N 50°16' W 000°44'1320.5
2015-Feb-25 16:33N 50°28' W 000°53'1918.7
2015-Feb-25 15:33N 50°45' W 001°05'4 4.1
2015-Feb-25 14:33N 50°49' W 001°06'0 0.0
2015-Feb-25 13:33N 50°49' W 001°06'3 3.4
2015-Feb-25 12:33N 50°45' W 001°05'1717.3
2015-Feb-25 11:33N 50°29' W 000°58'4120.4
2015-Feb-25 09:32N 49°49' W 000°40'2121.4
2015-Feb-25 08:33N 49°31' W 000°24'1514.7
2015-Feb-25 07:33N 49°17' W 000°15'0 0.0
2015-Feb-25 06:34N 49°17' W 000°15'0 0.1
2015-Feb-25 05:33N 49°17' W 000°15'1616.3
2015-Feb-25 04:33N 49°33' W 000°19'4715.3
2015-Feb-25 01:30N 50°17' W 000°45'1415.1
2015-Feb-25 00:33N 50°30' W 000°53'1414.1
2015-Feb-24 23:34N 50°43' W 001°01'6 6.1
2015-Feb-24 22:33N 50°49' W 001°06'0 0.0
2015-Feb-24 21:33N 50°49' W 001°06'5 5.0
2015-Feb-24 20:33N 50°44' W 001°03'1817.7
2015-Feb-24 19:33N 50°27' W 000°59'3718.6
2015-Feb-24 17:33N 49°51' W 000°41'1919.0
2015-Feb-24 16:34N 49°34' W 000°27'1818.2
2015-Feb-24 15:33N 49°18' W 000°15'1 0.8
2015-Feb-24 14:33N 49°17' W 000°15'0 0.0
2015-Feb-24 13:33N 49°17' W 000°15'1716.8
2015-Feb-24 12:33N 49°33' W 000°22'1919.2
2015-Feb-24 11:34N 49°52' W 000°32'4020.0
2015-Feb-24 09:33N 50°29' W 000°53'1918.6
2015-Feb-24 08:34N 50°46' W 001°05'3 2.7
2015-Feb-24 07:34N 50°49' W 001°06'0 0.1
2015-Feb-24 06:33N 50°49' W 001°06'1212.3
2015-Feb-24 05:34N 50°37' W 000°58'1717.3
2015-Feb-24 04:33N 50°21' W 000°47'2711.4
2015-Feb-24 02:09N 49°55' W 000°35'6 9.7
2015-Feb-24 01:33N 49°49' W 000°34'10 9.7
2015-Feb-24 00:33N 49°41' W 000°27'10 9.7
2015-Feb-23 23:33N 49°32' W 000°21'1110.7
2015-Feb-23 22:33N 49°22' W 000°15'5 4.5
2015-Feb-23 21:33N 49°17' W 000°15'0 0.0
2015-Feb-23 20:33N 49°17' W 000°15'1211.7
2015-Feb-23 19:33N 49°29' W 000°18'1918.6
2015-Feb-23 18:33N 49°46' W 000°28'3517.7
2015-Feb-23 16:33N 50°20' W 000°45'1717.3
2015-Feb-23 15:33N 50°35' W 000°57'1414.5
2015-Feb-23 14:33N 50°49' W 001°06'0 0.0
2015-Feb-23 13:33N 50°49' W 001°06'4 3.8
2015-Feb-23 12:33N 50°45' W 001°05'2019.9
2015-Feb-23 11:33N 50°26' W 000°54'3718.3
2015-Feb-23 09:33N 49°52' W 000°34'1918.6
2015-Feb-23 08:33N 49°34' W 000°24'1817.5
2015-Feb-23 07:33N 49°18' W 000°15'1 0.7
2015-Feb-23 06:34N 49°17' W 000°15'0 0.1
2015-Feb-23 05:34N 49°17' W 000°15'1212.4
2015-Feb-23 04:33N 49°29' W 000°20'1413.6
2015-Feb-23 03:33N 49°43' W 000°24'1515.0
2015-Feb-23 02:32N 49°56' W 000°34'1915.8
2015-Feb-23 01:22N 50°14' W 000°43'1215.2
2015-Feb-23 00:33N 50°25' W 000°50'1514.8
2015-Feb-22 23:34N 50°39' W 000°58'1110.6
2015-Feb-22 22:33N 50°49' W 001°06'0 0.0
2015-Feb-22 21:33N 50°49' W 001°06'5 4.9
2015-Feb-22 20:34N 50°44' W 001°04'1716.6
2015-Feb-22 19:33N 50°29' W 000°52'3618.1
2015-Feb-22 17:33N 49°54' W 000°36'2020.2
2015-Feb-22 16:33N 49°36' W 000°24'1918.9
2015-Feb-22 15:33N 49°18' W 000°15'0 0.3
2015-Feb-22 14:34N 49°17' W 000°15'2 2.0
2015-Feb-22 13:33N 49°19' W 000°15'2120.6
2015-Feb-22 12:33N 49°39' W 000°24'4120.5
2015-Feb-22 10:33N 50°18' W 000°46'1919.5
2015-Feb-22 09:33N 50°36' W 000°56'1414.4
2015-Feb-22 08:33N 50°49' W 001°07'1 0.6
2015-Feb-22 07:33N 50°49' W 001°06'0 0.3
2015-Feb-22 06:33N 50°49' W 001°06'1312.6
2015-Feb-22 05:33N 50°37' W 000°59'1211.5
2015-Feb-22 04:33N 50°26' W 000°57'3511.6
2015-Feb-22 01:33N 49°53' W 000°36'1111.1
2015-Feb-22 00:33N 49°43' W 000°29'1110.9
2015-Feb-21 23:33N 49°33' W 000°22'1110.7
2015-Feb-21 22:33N 49°23' W 000°16'6 6.2
2015-Feb-21 21:34N 49°17' W 000°15'0 0.0
2015-Feb-21 20:33N 49°17' W 000°15'1111.1
2015-Feb-21 19:33N 49°28' W 000°19'1919.0
2015-Feb-21 18:33N 49°46' W 000°27'3818.8
2015-Feb-21 16:32N 50°22' W 000°50'1919.2
2015-Feb-21 15:33N 50°39' W 000°59'1010.2
2015-Feb-21 14:33N 50°49' W 001°06'0 0.0
2015-Feb-21 13:33N 50°49' W 001°06'4 4.4
2015-Feb-21 12:34N 50°44' W 001°04'1818.3
2015-Feb-21 11:33N 50°28' W 000°53'3919.6
2015-Feb-21 09:33N 49°51' W 000°31'1919.4
2015-Feb-21 08:33N 49°33' W 000°21'1616.0
2015-Feb-21 07:33N 49°17' W 000°15'0 0.0
2015-Feb-21 06:33N 49°17' W 000°15'0 0.0
2015-Feb-21 05:33N 49°17' W 000°15'8 8.4
2015-Feb-21 04:33N 49°26' W 000°15'1211.8
2015-Feb-21 03:33N 49°37' W 000°20'1010.3
2015-Feb-21 02:33N 49°46' W 000°28'3714.9
2015-Feb-21 00:04N 50°21' W 000°49'816.6
2015-Feb-20 23:33N 50°29' W 000°54'1615.5
2015-Feb-20 22:33N 50°43' W 001°02'6 6.0
2015-Feb-20 21:33N 50°49' W 001°06'0 0.0
2015-Feb-20 20:33N 50°49' W 001°06'0 0.0
2015-Feb-20 19:33N 50°49' W 001°06'5 5.2
2015-Feb-20 18:33N 50°44' W 001°03'1716.7
2015-Feb-20 17:33N 50°28' W 000°54'4916.4
2015-Feb-20 14:33N 49°42' W 000°27'1818.5
2015-Feb-20 13:33N 49°25' W 000°17'7 7.5
2015-Feb-20 12:33N 49°17' W 000°15'0 0.0
2015-Feb-20 11:33N 49°17' W 000°15'0 0.0
2015-Feb-20 10:33N 49°17' W 000°15'0 0.0
2015-Feb-20 09:33N 49°17' W 000°15'0 0.0
2015-Feb-20 08:33N 49°17' W 000°15'0 0.0
2015-Feb-20 07:34N 49°17' W 000°15'0 0.1
2015-Feb-20 06:33N 49°17' W 000°15'1312.8
2015-Feb-20 05:33N 49°30' W 000°19'1010.3
2015-Feb-20 04:33N 49°39' W 000°25'1413.3
2015-Feb-20 03:31N 49°52' W 000°32'2814.1
2015-Feb-20 01:33N 50°18' W 000°47'1515.1
2015-Feb-20 00:33N 50°32' W 000°56'1514.7
2015-Feb-19 23:33N 50°46' W 001°05'3 3.2
2015-Feb-19 22:34N 50°49' W 001°06'0 0.0
2015-Feb-19 21:33N 50°49' W 001°06'9 8.8
2015-Feb-19 20:33N 50°41' W 001°01'1817.7
2015-Feb-19 19:32N 50°24' W 000°50'2718.1
2015-Feb-19 18:04N 49°59' W 000°37'1018.9
2015-Feb-19 17:33N 49°49' W 000°32'2019.5
2015-Feb-19 16:33N 49°31' W 000°21'1514.5
2015-Feb-19 15:33N 49°17' W 000°15'0 0.0
2015-Feb-19 14:33N 49°17' W 000°15'2 2.4
2015-Feb-19 13:34N 49°20' W 000°14'1817.5
2015-Feb-19 12:33N 49°37' W 000°19'5518.2
2015-Feb-19 09:34N 50°28' W 000°50'1818.1
2015-Feb-19 08:34N 50°44' W 001°04'5 5.0
2015-Feb-19 07:33N 50°49' W 001°06'0 0.0
2015-Feb-19 06:34N 50°49' W 001°06'9 8.9
2015-Feb-19 05:33N 50°41' W 000°58'1514.5
2015-Feb-19 04:34N 50°27' W 000°52'2511.6
2015-Feb-19 02:26N 50°04' W 000°40'1112.4
2015-Feb-19 01:34N 49°54' W 000°32'1312.8
2015-Feb-19 00:33N 49°43' W 000°23'1212.5
2015-Feb-18 23:33N 49°30' W 000°20'1211.7
2015-Feb-18 22:34N 49°19' W 000°15'2 1.9
2015-Feb-18 21:34N 49°17' W 000°15'1 1.5
2015-Feb-18 20:33N 49°19' W 000°15'2019.5
2015-Feb-18 19:33N 49°37' W 000°25'5819.5
2015-Feb-18 16:33N 50°33' W 000°53'1717.3
2015-Feb-18 15:33N 50°48' W 001°07'1 1.3
2015-Feb-18 14:33N 50°49' W 001°06'0 0.0
2015-Feb-18 13:33N 50°49' W 001°06'1 0.5
2015-Feb-18 12:34N 50°49' W 001°07'1716.9
2015-Feb-18 11:33N 50°34' W 000°54'2519.5
2015-Feb-18 10:17N 50°11' W 000°37'1419.1
2015-Feb-18 09:33N 49°58' W 000°31'1918.9
2015-Feb-18 08:33N 49°40' W 000°22'1919.1
2015-Feb-18 07:33N 49°21' W 000°15'4 4.1
2015-Feb-18 06:33N 49°17' W 000°15'0 0.0
2015-Feb-18 05:33N 49°17' W 000°15'1110.7
2015-Feb-18 04:33N 49°28' W 000°16'1717.3
2015-Feb-18 03:33N 49°44' W 000°27'3417.1
2015-Feb-18 01:33N 50°17' W 000°43'1717.3
2015-Feb-18 00:33N 50°32' W 000°55'1616.2
2015-Feb-17 23:33N 50°47' W 001°06'2 2.0
2015-Feb-17 22:33N 50°49' W 001°06'0 0.0
2015-Feb-17 21:33N 50°49' W 001°06'1212.0
2015-Feb-17 20:34N 50°37' W 000°59'2020.4
2015-Feb-17 19:33N 50°18' W 000°47'4019.9
2015-Feb-17 17:33N 49°41' W 000°28'2020.0
2015-Feb-17 16:34N 49°22' W 000°15'5 5.1
2015-Feb-17 15:33N 49°17' W 000°15'0 0.0
2015-Feb-17 14:33N 49°17' W 000°15'2 2.1
2015-Feb-17 13:33N 49°19' W 000°14'1919.4
2015-Feb-17 12:33N 49°38' W 000°22'4219.3
2015-Feb-17 10:24N 50°17' W 000°46'1720.0
2015-Feb-17 09:33N 50°33' W 000°56'1717.0
2015-Feb-17 08:33N 50°48' W 001°07'1 0.9
2015-Feb-17 07:33N 50°49' W 001°06'0 0.1
2015-Feb-17 06:34N 50°49' W 001°06'1313.0
2015-Feb-17 05:34N 50°37' W 000°58'4711.7
2015-Feb-17 01:33N 49°52' W 000°35'1111.2
2015-Feb-17 00:33N 49°42' W 000°29'  

Dump ship's entire track history